sensor_id;sensor_type;location;lat;lon;timestamp;temperature;humidity
35129;DHT22;21301;43.626;10.580;2023-02-26T00:00:12;13.40;99.90
35129;DHT22;21301;43.626;10.580;2023-02-26T00:02:43;13.50;99.90
35129;DHT22;21301;43.626;10.580;2023-02-26T00:05:11;13.50;99.90
35129;DHT22;21301;43.626;10.580;2023-02-26T00:07:37;13.30;99.90
35129;DHT22;21301;43.626;10.580;2023-02-26T00:10:05;13.30;99.90
35129;DHT22;21301;43.626;10.580;2023-02-26T00:12:32;13.30;99.90
35129;DHT22;21301;43.626;10.580;2023-02-26T00:14:58;13.20;99.90
35129;DHT22;21301;43.626;10.580;2023-02-26T00:20:09;13.10;99.90
35129;DHT22;21301;43.626;10.580;2023-02-26T00:22:40;13.10;99.90
35129;DHT22;21301;43.626;10.580;2023-02-26T00:25:07;13.10;99.90
35129;DHT22;21301;43.626;10.580;2023-02-26T00:27:33;13.20;99.90
35129;DHT22;21301;43.626;10.580;2023-02-26T00:30:00;13.30;99.90
35129;DHT22;21301;43.626;10.580;2023-02-26T00:32:27;13.20;99.90
35129;DHT22;21301;43.626;10.580;2023-02-26T00:34:53;13.20;99.90
35129;DHT22;21301;43.626;10.580;2023-02-26T00:42:41;13.20;99.90
35129;DHT22;21301;43.626;10.580;2023-02-26T00:45:08;13.20;99.90
35129;DHT22;21301;43.626;10.580;2023-02-26T00:50:23;13.20;99.90
35129;DHT22;21301;43.626;10.580;2023-02-26T00:55:37;13.30;99.90
35129;DHT22;21301;43.626;10.580;2023-02-26T00:58:03;13.10;99.90
35129;DHT22;21301;43.626;10.580;2023-02-26T01:00:29;13.20;99.90
35129;DHT22;21301;43.626;10.580;2023-02-26T01:02:55;13.10;99.90
35129;DHT22;21301;43.626;10.580;2023-02-26T01:05:21;13.30;99.90
35129;DHT22;21301;43.626;10.580;2023-02-26T01:08:20;13.40;99.90
35129;DHT22;21301;43.626;10.580;2023-02-26T01:10:49;13.60;99.90
35129;DHT22;21301;43.626;10.580;2023-02-26T01:13:15;13.30;99.90
35129;DHT22;21301;43.626;10.580;2023-02-26T01:15:45;13.30;99.90
35129;DHT22;21301;43.626;10.580;2023-02-26T01:18:25;13.30;99.90
35129;DHT22;21301;43.626;10.580;2023-02-26T01:21:04;13.30;99.90
35129;DHT22;21301;43.626;10.580;2023-02-26T01:23:37;13.20;99.90
35129;DHT22;21301;43.626;10.580;2023-02-26T01:26:25;13.30;99.90
35129;DHT22;21301;43.626;10.580;2023-02-26T01:28:52;13.20;99.90
35129;DHT22;21301;43.626;10.580;2023-02-26T01:34:25;13.20;99.90
35129;DHT22;21301;43.626;10.580;2023-02-26T01:37:24;13.10;99.90
35129;DHT22;21301;43.626;10.580;2023-02-26T01:42:56;13.10;99.90
35129;DHT22;21301;43.626;10.580;2023-02-26T01:45:45;13.00;99.90
35129;DHT22;21301;43.626;10.580;2023-02-26T01:48:48;13.00;99.90
35129;DHT22;21301;43.626;10.580;2023-02-26T01:51:14;13.00;99.90
35129;DHT22;21301;43.626;10.580;2023-02-26T01:53:40;12.90;99.90
35129;DHT22;21301;43.626;10.580;2023-02-26T01:56:19;12.90;99.90
35129;DHT22;21301;43.626;10.580;2023-02-26T01:58:47;12.80;99.90
35129;DHT22;21301;43.626;10.580;2023-02-26T02:01:14;12.80;99.90
35129;DHT22;21301;43.626;10.580;2023-02-26T02:03:41;12.80;99.90
35129;DHT22;21301;43.626;10.580;2023-02-26T02:06:17;12.80;99.90
35129;DHT22;21301;43.626;10.580;2023-02-26T02:08:44;12.80;99.90
35129;DHT22;21301;43.626;10.580;2023-02-26T02:11:11;12.80;99.90
35129;DHT22;21301;43.626;10.580;2023-02-26T02:25:21;12.80;99.90
35129;DHT22;21301;43.626;10.580;2023-02-26T02:28:02;12.90;99.90
35129;DHT22;21301;43.626;10.580;2023-02-26T02:33:19;12.90;99.90
35129;DHT22;21301;43.626;10.580;2023-02-26T02:35:58;13.00;99.90
35129;DHT22;21301;43.626;10.580;2023-02-26T02:38:32;13.10;99.90
35129;DHT22;21301;43.626;10.580;2023-02-26T02:41:13;13.20;99.90
35129;DHT22;21301;43.626;10.580;2023-02-26T02:43:41;13.10;99.90
35129;DHT22;21301;43.626;10.580;2023-02-26T02:46:13;13.10;99.90
35129;DHT22;21301;43.626;10.580;2023-02-26T02:48:53;13.20;99.90
35129;DHT22;21301;43.626;10.580;2023-02-26T02:51:29;13.30;99.90
35129;DHT22;21301;43.626;10.580;2023-02-26T02:54:14;13.40;99.90
35129;DHT22;21301;43.626;10.580;2023-02-26T02:59:41;13.50;99.90
35129;DHT22;21301;43.626;10.580;2023-02-26T03:05:09;13.50;99.90
35129;DHT22;21301;43.626;10.580;2023-02-26T03:07:41;13.30;99.90
35129;DHT22;21301;43.626;10.580;2023-02-26T03:10:09;13.20;99.90
35129;DHT22;21301;43.626;10.580;2023-02-26T03:12:34;13.00;99.90
35129;DHT22;21301;43.626;10.580;2023-02-26T03:15:01;13.00;99.90
35129;DHT22;21301;43.626;10.580;2023-02-26T03:17:58;13.00;99.90
35129;DHT22;21301;43.626;10.580;2023-02-26T03:20:37;12.90;99.90
35129;DHT22;21301;43.626;10.580;2023-02-26T03:23:53;13.00;99.90
35129;DHT22;21301;43.626;10.580;2023-02-26T03:26:11;13.20;99.90
35129;DHT22;21301;43.626;10.580;2023-02-26T03:29:01;13.10;99.90
35129;DHT22;21301;43.626;10.580;2023-02-26T03:31:41;13.20;99.90
35129;DHT22;21301;43.626;10.580;2023-02-26T03:37:05;13.30;99.90
35129;DHT22;21301;43.626;10.580;2023-02-26T03:39:37;13.40;99.90
35129;DHT22;21301;43.626;10.580;2023-02-26T03:42:26;13.50;99.90
35129;DHT22;21301;43.626;10.580;2023-02-26T03:45:04;13.60;99.90
35129;DHT22;21301;43.626;10.580;2023-02-26T03:47:34;13.60;99.90
35129;DHT22;21301;43.626;10.580;2023-02-26T03:50:12;13.50;99.90
35129;DHT22;21301;43.626;10.580;2023-02-26T03:53:07;13.50;99.90
35129;DHT22;21301;43.626;10.580;2023-02-26T03:55:50;13.50;99.90
35129;DHT22;21301;43.626;10.580;2023-02-26T03:58:33;13.60;99.90
35129;DHT22;21301;43.626;10.580;2023-02-26T04:04:55;13.30;99.90
35129;DHT22;21301;43.626;10.580;2023-02-26T04:07:21;13.20;99.90
35129;DHT22;21301;43.626;10.580;2023-02-26T04:09:49;13.40;99.90
35129;DHT22;21301;43.626;10.580;2023-02-26T04:12:24;13.50;99.90
35129;DHT22;21301;43.626;10.580;2023-02-26T04:14:56;13.50;99.90
35129;DHT22;21301;43.626;10.580;2023-02-26T04:17:23;13.50;99.90
35129;DHT22;21301;43.626;10.580;2023-02-26T04:19:49;13.60;99.90
35129;DHT22;21301;43.626;10.580;2023-02-26T04:22:15;13.60;99.90
35129;DHT22;21301;43.626;10.580;2023-02-26T04:24:41;13.40;99.90
35129;DHT22;21301;43.626;10.580;2023-02-26T04:27:07;13.20;99.90
35129;DHT22;21301;43.626;10.580;2023-02-26T04:29:33;13.20;99.90
35129;DHT22;21301;43.626;10.580;2023-02-26T04:31:59;13.20;99.90
35129;DHT22;21301;43.626;10.580;2023-02-26T04:34:26;13.20;99.90
35129;DHT22;21301;43.626;10.580;2023-02-26T04:36:52;13.30;99.90
35129;DHT22;21301;43.626;10.580;2023-02-26T04:39:18;13.20;99.90
35129;DHT22;21301;43.626;10.580;2023-02-26T04:41:44;13.10;99.90
35129;DHT22;21301;43.626;10.580;2023-02-26T04:44:10;13.10;99.90
35129;DHT22;21301;43.626;10.580;2023-02-26T04:46:40;13.20;99.90
35129;DHT22;21301;43.626;10.580;2023-02-26T04:49:05;13.30;99.90
35129;DHT22;21301;43.626;10.580;2023-02-26T04:51:32;13.20;99.90
35129;DHT22;21301;43.626;10.580;2023-02-26T04:54:01;13.10;99.90
35129;DHT22;21301;43.626;10.580;2023-02-26T04:56:27;13.20;99.90
35129;DHT22;21301;43.626;10.580;2023-02-26T04:58:53;13.30;99.90
35129;DHT22;21301;43.626;10.580;2023-02-26T05:01:23;13.30;99.90
35129;DHT22;21301;43.626;10.580;2023-02-26T05:03:49;13.30;99.90
35129;DHT22;21301;43.626;10.580;2023-02-26T05:06:15;13.40;99.90
35129;DHT22;21301;43.626;10.580;2023-02-26T05:08:41;13.30;99.90
35129;DHT22;21301;43.626;10.580;2023-02-26T05:11:09;13.30;99.90
35129;DHT22;21301;43.626;10.580;2023-02-26T05:13:35;13.30;99.90
35129;DHT22;21301;43.626;10.580;2023-02-26T05:16:01;13.30;99.90
35129;DHT22;21301;43.626;10.580;2023-02-26T05:18:27;13.30;99.90
35129;DHT22;21301;43.626;10.580;2023-02-26T05:20:55;13.40;99.90
35129;DHT22;21301;43.626;10.580;2023-02-26T05:23:21;13.40;99.90
35129;DHT22;21301;43.626;10.580;2023-02-26T05:25:47;13.40;99.90
35129;DHT22;21301;43.626;10.580;2023-02-26T05:28:14;13.30;99.90
35129;DHT22;21301;43.626;10.580;2023-02-26T05:30:40;13.30;99.90
35129;DHT22;21301;43.626;10.580;2023-02-26T05:33:06;13.30;99.90
35129;DHT22;21301;43.626;10.580;2023-02-26T05:35:32;13.30;99.90
35129;DHT22;21301;43.626;10.580;2023-02-26T05:37:58;13.30;99.90
35129;DHT22;21301;43.626;10.580;2023-02-26T05:40:24;13.30;99.90
35129;DHT22;21301;43.626;10.580;2023-02-26T05:42:50;13.10;99.90
35129;DHT22;21301;43.626;10.580;2023-02-26T05:45:16;13.00;99.90
35129;DHT22;21301;43.626;10.580;2023-02-26T05:47:42;13.10;99.90
35129;DHT22;21301;43.626;10.580;2023-02-26T05:50:09;13.10;99.90
35129;DHT22;21301;43.626;10.580;2023-02-26T05:52:35;12.90;99.90
35129;DHT22;21301;43.626;10.580;2023-02-26T05:55:01;12.70;99.90
35129;DHT22;21301;43.626;10.580;2023-02-26T05:57:27;12.70;99.90
35129;DHT22;21301;43.626;10.580;2023-02-26T05:59:53;12.70;99.90
35129;DHT22;21301;43.626;10.580;2023-02-26T06:02:19;12.60;99.90
35129;DHT22;21301;43.626;10.580;2023-02-26T06:04:45;12.70;99.90
35129;DHT22;21301;43.626;10.580;2023-02-26T06:07:10;12.60;99.90
35129;DHT22;21301;43.626;10.580;2023-02-26T06:09:36;12.70;99.90
35129;DHT22;21301;43.626;10.580;2023-02-26T06:12:02;12.70;99.90
35129;DHT22;21301;43.626;10.580;2023-02-26T06:14:28;12.70;99.90
35129;DHT22;21301;43.626;10.580;2023-02-26T06:16:54;12.70;99.90
35129;DHT22;21301;43.626;10.580;2023-02-26T06:19:20;12.70;99.90
35129;DHT22;21301;43.626;10.580;2023-02-26T06:21:46;12.80;99.90
35129;DHT22;21301;43.626;10.580;2023-02-26T06:24:12;12.80;99.90
35129;DHT22;21301;43.626;10.580;2023-02-26T06:26:38;12.70;99.90
35129;DHT22;21301;43.626;10.580;2023-02-26T06:29:04;12.50;99.90
35129;DHT22;21301;43.626;10.580;2023-02-26T06:31:29;12.70;99.90
35129;DHT22;21301;43.626;10.580;2023-02-26T06:33:55;12.60;99.90
35129;DHT22;21301;43.626;10.580;2023-02-26T06:36:21;12.60;99.90
35129;DHT22;21301;43.626;10.580;2023-02-26T06:38:47;12.80;99.90
35129;DHT22;21301;43.626;10.580;2023-02-26T06:41:13;12.70;99.90
35129;DHT22;21301;43.626;10.580;2023-02-26T06:43:39;12.80;99.90
35129;DHT22;21301;43.626;10.580;2023-02-26T06:46:05;12.90;99.90
35129;DHT22;21301;43.626;10.580;2023-02-26T06:48:31;12.70;99.90
35129;DHT22;21301;43.626;10.580;2023-02-26T06:50:57;12.80;99.90
35129;DHT22;21301;43.626;10.580;2023-02-26T06:53:23;12.80;99.90
35129;DHT22;21301;43.626;10.580;2023-02-26T06:55:51;12.80;99.90
35129;DHT22;21301;43.626;10.580;2023-02-26T06:58:17;13.00;99.90
35129;DHT22;21301;43.626;10.580;2023-02-26T07:00:44;13.00;99.90
35129;DHT22;21301;43.626;10.580;2023-02-26T07:03:12;12.80;99.90
35129;DHT22;21301;43.626;10.580;2023-02-26T07:05:38;12.90;99.90
35129;DHT22;21301;43.626;10.580;2023-02-26T07:08:04;12.90;99.90
35129;DHT22;21301;43.626;10.580;2023-02-26T07:10:34;13.00;99.90
35129;DHT22;21301;43.626;10.580;2023-02-26T07:13:01;13.00;99.90
35129;DHT22;21301;43.626;10.580;2023-02-26T07:15:28;13.10;99.90
35129;DHT22;21301;43.626;10.580;2023-02-26T07:17:54;13.10;99.90
35129;DHT22;21301;43.626;10.580;2023-02-26T07:20:20;13.10;99.90
35129;DHT22;21301;43.626;10.580;2023-02-26T07:22:47;13.10;99.90
35129;DHT22;21301;43.626;10.580;2023-02-26T07:25:13;13.20;99.90
35129;DHT22;21301;43.626;10.580;2023-02-26T07:27:39;13.10;99.90
35129;DHT22;21301;43.626;10.580;2023-02-26T07:30:06;13.00;99.90
35129;DHT22;21301;43.626;10.580;2023-02-26T07:32:33;13.00;99.90
35129;DHT22;21301;43.626;10.580;2023-02-26T07:34:59;13.00;99.90
35129;DHT22;21301;43.626;10.580;2023-02-26T07:37:25;12.90;99.90
35129;DHT22;21301;43.626;10.580;2023-02-26T07:39:51;12.10;99.90
35129;DHT22;21301;43.626;10.580;2023-02-26T07:42:17;11.50;99.90
35129;DHT22;21301;43.626;10.580;2023-02-26T07:44:43;11.20;99.90
35129;DHT22;21301;43.626;10.580;2023-02-26T07:47:12;11.00;99.90
35129;DHT22;21301;43.626;10.580;2023-02-26T07:49:39;10.70;99.90
35129;DHT22;21301;43.626;10.580;2023-02-26T07:52:05;10.40;99.90
35129;DHT22;21301;43.626;10.580;2023-02-26T07:54:35;10.20;99.90
35129;DHT22;21301;43.626;10.580;2023-02-26T07:57:01;10.30;99.90
35129;DHT22;21301;43.626;10.580;2023-02-26T07:59:27;10.10;99.90
35129;DHT22;21301;43.626;10.580;2023-02-26T08:01:53;10.10;99.90
35129;DHT22;21301;43.626;10.580;2023-02-26T08:04:19;10.00;99.90
35129;DHT22;21301;43.626;10.580;2023-02-26T08:06:44;10.00;99.90
35129;DHT22;21301;43.626;10.580;2023-02-26T08:09:11;9.80;99.90
35129;DHT22;21301;43.626;10.580;2023-02-26T08:11:37;9.60;99.90
35129;DHT22;21301;43.626;10.580;2023-02-26T08:14:06;9.40;99.90
35129;DHT22;21301;43.626;10.580;2023-02-26T08:16:32;9.20;99.90
35129;DHT22;21301;43.626;10.580;2023-02-26T08:18:58;9.10;99.90
35129;DHT22;21301;43.626;10.580;2023-02-26T08:21:24;9.10;99.90
35129;DHT22;21301;43.626;10.580;2023-02-26T08:23:50;9.00;99.90
35129;DHT22;21301;43.626;10.580;2023-02-26T08:26:17;8.90;99.90
35129;DHT22;21301;43.626;10.580;2023-02-26T08:28:43;8.90;99.90
35129;DHT22;21301;43.626;10.580;2023-02-26T08:31:11;8.80;99.90
35129;DHT22;21301;43.626;10.580;2023-02-26T08:33:38;8.70;99.90
35129;DHT22;21301;43.626;10.580;2023-02-26T08:36:05;8.70;99.90
35129;DHT22;21301;43.626;10.580;2023-02-26T08:38:31;8.60;99.90
35129;DHT22;21301;43.626;10.580;2023-02-26T08:40:57;8.60;99.90
35129;DHT22;21301;43.626;10.580;2023-02-26T08:43:23;8.60;99.90
35129;DHT22;21301;43.626;10.580;2023-02-26T08:45:53;8.60;99.90
35129;DHT22;21301;43.626;10.580;2023-02-26T08:48:20;8.60;99.90
35129;DHT22;21301;43.626;10.580;2023-02-26T08:50:46;8.50;99.90
35129;DHT22;21301;43.626;10.580;2023-02-26T08:53:12;8.50;99.90
35129;DHT22;21301;43.626;10.580;2023-02-26T08:55:38;8.50;99.90
35129;DHT22;21301;43.626;10.580;2023-02-26T08:58:04;8.50;99.90
35129;DHT22;21301;43.626;10.580;2023-02-26T09:00:32;8.40;99.90
35129;DHT22;21301;43.626;10.580;2023-02-26T09:02:59;8.50;99.90
35129;DHT22;21301;43.626;10.580;2023-02-26T09:05:24;8.50;99.90
35129;DHT22;21301;43.626;10.580;2023-02-26T09:07:50;8.50;99.90
35129;DHT22;21301;43.626;10.580;2023-02-26T09:10:16;8.40;99.90
35129;DHT22;21301;43.626;10.580;2023-02-26T09:12:43;8.40;99.90
35129;DHT22;21301;43.626;10.580;2023-02-26T09:15:09;8.40;99.90
35129;DHT22;21301;43.626;10.580;2023-02-26T09:17:36;8.40;99.90
35129;DHT22;21301;43.626;10.580;2023-02-26T09:20:03;8.30;99.90
35129;DHT22;21301;43.626;10.580;2023-02-26T09:22:29;8.30;99.90
35129;DHT22;21301;43.626;10.580;2023-02-26T09:24:54;8.30;99.90
35129;DHT22;21301;43.626;10.580;2023-02-26T09:27:20;8.30;99.90
35129;DHT22;21301;43.626;10.580;2023-02-26T09:29:47;8.30;99.90
35129;DHT22;21301;43.626;10.580;2023-02-26T09:32:13;8.30;99.90
35129;DHT22;21301;43.626;10.580;2023-02-26T09:34:39;8.30;99.90
35129;DHT22;21301;43.626;10.580;2023-02-26T09:37:07;8.30;99.90
35129;DHT22;21301;43.626;10.580;2023-02-26T09:39:34;8.30;99.90
35129;DHT22;21301;43.626;10.580;2023-02-26T09:44:47;8.30;99.90
35129;DHT22;21301;43.626;10.580;2023-02-26T09:47:27;8.30;99.90
35129;DHT22;21301;43.626;10.580;2023-02-26T09:52:39;8.20;99.90
35129;DHT22;21301;43.626;10.580;2023-02-26T09:55:21;8.30;99.90
35129;DHT22;21301;43.626;10.580;2023-02-26T09:57:51;8.30;99.90
35129;DHT22;21301;43.626;10.580;2023-02-26T10:11:50;8.10;99.90
35129;DHT22;21301;43.626;10.580;2023-02-26T10:14:27;8.10;99.90
35129;DHT22;21301;43.626;10.580;2023-02-26T10:17:02;8.10;99.90
35129;DHT22;21301;43.626;10.580;2023-02-26T10:19:34;8.10;99.90
35129;DHT22;21301;43.626;10.580;2023-02-26T10:22:20;8.00;99.90
35129;DHT22;21301;43.626;10.580;2023-02-26T10:24:57;8.00;99.90
35129;DHT22;21301;43.626;10.580;2023-02-26T10:30:13;8.00;99.90
35129;DHT22;21301;43.626;10.580;2023-02-26T10:33:18;8.00;99.90
35129;DHT22;21301;43.626;10.580;2023-02-26T10:35:51;7.90;99.90
35129;DHT22;21301;43.626;10.580;2023-02-26T10:38:22;8.00;99.90
35129;DHT22;21301;43.626;10.580;2023-02-26T10:46:44;7.90;99.90
35129;DHT22;21301;43.626;10.580;2023-02-26T10:49:41;7.80;99.90
35129;DHT22;21301;43.626;10.580;2023-02-26T10:52:24;7.80;99.90
35129;DHT22;21301;43.626;10.580;2023-02-26T10:58:05;7.70;99.90
35129;DHT22;21301;43.626;10.580;2023-02-26T11:00:32;7.60;99.90
35129;DHT22;21301;43.626;10.580;2023-02-26T11:03:01;7.60;99.90
35129;DHT22;21301;43.626;10.580;2023-02-26T11:05:32;7.50;99.90
35129;DHT22;21301;43.626;10.580;2023-02-26T11:08:02;7.60;99.90
35129;DHT22;21301;43.626;10.580;2023-02-26T11:10:56;7.40;99.90
35129;DHT22;21301;43.626;10.580;2023-02-26T11:13:24;7.30;99.90
35129;DHT22;21301;43.626;10.580;2023-02-26T11:15:53;7.30;99.90
35129;DHT22;21301;43.626;10.580;2023-02-26T11:18:29;7.20;99.90
35129;DHT22;21301;43.626;10.580;2023-02-26T11:20:57;7.10;99.90
35129;DHT22;21301;43.626;10.580;2023-02-26T11:23:26;7.00;99.90
35129;DHT22;21301;43.626;10.580;2023-02-26T11:26:05;6.90;99.90
35129;DHT22;21301;43.626;10.580;2023-02-26T11:28:36;6.90;99.90
35129;DHT22;21301;43.626;10.580;2023-02-26T11:31:06;6.80;99.90
35129;DHT22;21301;43.626;10.580;2023-02-26T11:33:38;6.70;99.90
35129;DHT22;21301;43.626;10.580;2023-02-26T11:36:17;6.70;99.90
35129;DHT22;21301;43.626;10.580;2023-02-26T11:38:45;6.60;99.90
35129;DHT22;21301;43.626;10.580;2023-02-26T11:41:12;6.50;99.90
35129;DHT22;21301;43.626;10.580;2023-02-26T11:43:42;6.50;99.90
35129;DHT22;21301;43.626;10.580;2023-02-26T11:46:10;6.50;99.90
35129;DHT22;21301;43.626;10.580;2023-02-26T11:48:40;6.50;99.90
35129;DHT22;21301;43.626;10.580;2023-02-26T11:51:10;6.40;99.90
35129;DHT22;21301;43.626;10.580;2023-02-26T11:53:52;6.40;99.90
35129;DHT22;21301;43.626;10.580;2023-02-26T11:58:51;6.30;99.90
35129;DHT22;21301;43.626;10.580;2023-02-26T12:01:17;6.30;99.90
35129;DHT22;21301;43.626;10.580;2023-02-26T12:03:46;6.30;99.90
35129;DHT22;21301;43.626;10.580;2023-02-26T12:06:21;6.20;99.90
35129;DHT22;21301;43.626;10.580;2023-02-26T12:08:49;6.20;99.90
35129;DHT22;21301;43.626;10.580;2023-02-26T12:22:22;6.00;99.90
35129;DHT22;21301;43.626;10.580;2023-02-26T12:25:21;5.90;99.90
35129;DHT22;21301;43.626;10.580;2023-02-26T12:27:58;5.80;99.90
35129;DHT22;21301;43.626;10.580;2023-02-26T12:30:44;5.90;99.90
35129;DHT22;21301;43.626;10.580;2023-02-26T12:41:20;5.90;99.90
35129;DHT22;21301;43.626;10.580;2023-02-26T12:43:53;5.90;99.90
35129;DHT22;21301;43.626;10.580;2023-02-26T12:46:31;5.90;99.90
35129;DHT22;21301;43.626;10.580;2023-02-26T13:08:31;5.90;99.90
35129;DHT22;21301;43.626;10.580;2023-02-26T13:14:41;5.80;99.90
35129;DHT22;21301;43.626;10.580;2023-02-26T13:19:55;5.80;99.90
35129;DHT22;21301;43.626;10.580;2023-02-26T13:22:29;5.70;99.90
35129;DHT22;21301;43.626;10.580;2023-02-26T13:25:01;5.80;99.90
35129;DHT22;21301;43.626;10.580;2023-02-26T13:27:32;5.70;99.90
35129;DHT22;21301;43.626;10.580;2023-02-26T13:32:44;5.70;99.90
35129;DHT22;21301;43.626;10.580;2023-02-26T13:35:28;5.60;99.90
35129;DHT22;21301;43.626;10.580;2023-02-26T13:37:57;5.70;99.90
35129;DHT22;21301;43.626;10.580;2023-02-26T13:48:41;5.60;99.90
35129;DHT22;21301;43.626;10.580;2023-02-26T13:53:52;5.60;99.90
35129;DHT22;21301;43.626;10.580;2023-02-26T14:22:37;5.40;99.90
35129;DHT22;21301;43.626;10.580;2023-02-26T14:25:33;5.40;99.90
35129;DHT22;21301;43.626;10.580;2023-02-26T14:30:50;5.50;99.90
35129;DHT22;21301;43.626;10.580;2023-02-26T14:33:18;5.50;99.90
35129;DHT22;21301;43.626;10.580;2023-02-26T14:35:51;5.40;99.90
35129;DHT22;21301;43.626;10.580;2023-02-26T14:38:27;5.40;99.90
35129;DHT22;21301;43.626;10.580;2023-02-26T14:43:48;5.40;99.90
35129;DHT22;21301;43.626;10.580;2023-02-26T14:46:16;5.40;99.90
35129;DHT22;21301;43.626;10.580;2023-02-26T14:48:46;5.40;99.90
35129;DHT22;21301;43.626;10.580;2023-02-26T14:51:29;5.30;99.90
35129;DHT22;21301;43.626;10.580;2023-02-26T14:59:59;5.20;99.90
35129;DHT22;21301;43.626;10.580;2023-02-26T15:02:38;5.30;99.90
35129;DHT22;21301;43.626;10.580;2023-02-26T15:05:22;5.20;99.90
35129;DHT22;21301;43.626;10.580;2023-02-26T15:07:54;5.20;99.90
35129;DHT22;21301;43.626;10.580;2023-02-26T15:18:52;5.20;99.90
35129;DHT22;21301;43.626;10.580;2023-02-26T15:24:10;5.20;99.90
35129;DHT22;21301;43.626;10.580;2023-02-26T15:26:45;5.20;99.90
35129;DHT22;21301;43.626;10.580;2023-02-26T15:29:13;5.10;99.90
35129;DHT22;21301;43.626;10.580;2023-02-26T15:31:46;5.20;99.90
35129;DHT22;21301;43.626;10.580;2023-02-26T15:34:15;5.20;99.90
35129;DHT22;21301;43.626;10.580;2023-02-26T15:36:46;5.20;99.90
35129;DHT22;21301;43.626;10.580;2023-02-26T15:39:15;5.10;99.90
35129;DHT22;21301;43.626;10.580;2023-02-26T15:41:43;5.10;99.90
35129;DHT22;21301;43.626;10.580;2023-02-26T15:44:16;5.10;99.90
35129;DHT22;21301;43.626;10.580;2023-02-26T15:46:46;5.10;99.90
35129;DHT22;21301;43.626;10.580;2023-02-26T15:49:22;5.10;99.90
35129;DHT22;21301;43.626;10.580;2023-02-26T15:51:50;5.20;99.90
35129;DHT22;21301;43.626;10.580;2023-02-26T15:54:19;5.20;99.90
35129;DHT22;21301;43.626;10.580;2023-02-26T15:56:47;5.20;99.90
35129;DHT22;21301;43.626;10.580;2023-02-26T15:59:24;5.20;99.90
35129;DHT22;21301;43.626;10.580;2023-02-26T16:01:50;5.20;99.90
35129;DHT22;21301;43.626;10.580;2023-02-26T16:04:18;5.20;99.90
35129;DHT22;21301;43.626;10.580;2023-02-26T16:06:47;5.20;99.90
35129;DHT22;21301;43.626;10.580;2023-02-26T16:11:44;5.20;99.90
35129;DHT22;21301;43.626;10.580;2023-02-26T16:14:26;5.20;99.90
35129;DHT22;21301;43.626;10.580;2023-02-26T16:16:55;5.20;99.90
35129;DHT22;21301;43.626;10.580;2023-02-26T16:19:54;5.20;99.90
35129;DHT22;21301;43.626;10.580;2023-02-26T16:22:33;5.20;99.90
35129;DHT22;21301;43.626;10.580;2023-02-26T16:27:40;5.20;99.90
35129;DHT22;21301;43.626;10.580;2023-02-26T16:30:13;5.20;99.90
35129;DHT22;21301;43.626;10.580;2023-02-26T16:32:41;5.20;99.90
35129;DHT22;21301;43.626;10.580;2023-02-26T16:35:14;5.20;99.90
35129;DHT22;21301;43.626;10.580;2023-02-26T16:37:44;5.20;99.90
35129;DHT22;21301;43.626;10.580;2023-02-26T16:47:54;5.20;99.90
35129;DHT22;21301;43.626;10.580;2023-02-26T16:50:25;5.10;99.90
35129;DHT22;21301;43.626;10.580;2023-02-26T16:53:12;5.20;99.90
35129;DHT22;21301;43.626;10.580;2023-02-26T16:55:40;5.20;99.90
35129;DHT22;21301;43.626;10.580;2023-02-26T16:58:12;5.20;99.90
35129;DHT22;21301;43.626;10.580;2023-02-26T17:00:38;5.10;99.90
35129;DHT22;21301;43.626;10.580;2023-02-26T17:03:17;5.10;99.90
35129;DHT22;21301;43.626;10.580;2023-02-26T17:05:53;5.20;99.90
35129;DHT22;21301;43.626;10.580;2023-02-26T17:08:26;5.20;99.90
35129;DHT22;21301;43.626;10.580;2023-02-26T17:11:05;5.20;99.90
35129;DHT22;21301;43.626;10.580;2023-02-26T17:13:33;5.20;99.90
35129;DHT22;21301;43.626;10.580;2023-02-26T17:16:01;5.10;99.90
35129;DHT22;21301;43.626;10.580;2023-02-26T17:18:28;5.10;99.90
35129;DHT22;21301;43.626;10.580;2023-02-26T17:20:55;5.10;99.90
35129;DHT22;21301;43.626;10.580;2023-02-26T17:23:29;5.10;99.90
35129;DHT22;21301;43.626;10.580;2023-02-26T17:25:55;5.10;99.90
35129;DHT22;21301;43.626;10.580;2023-02-26T17:28:30;5.20;99.90
35129;DHT22;21301;43.626;10.580;2023-02-26T17:30:59;5.20;99.90
35129;DHT22;21301;43.626;10.580;2023-02-26T17:33:24;5.10;99.90
35129;DHT22;21301;43.626;10.580;2023-02-26T17:35:54;5.20;99.90
35129;DHT22;21301;43.626;10.580;2023-02-26T17:38:20;5.20;99.90
35129;DHT22;21301;43.626;10.580;2023-02-26T17:40:47;5.30;99.90
35129;DHT22;21301;43.626;10.580;2023-02-26T17:43:13;5.30;99.90
35129;DHT22;21301;43.626;10.580;2023-02-26T17:45:39;5.30;99.90
35129;DHT22;21301;43.626;10.580;2023-02-26T17:48:06;5.20;99.90
35129;DHT22;21301;43.626;10.580;2023-02-26T17:50:43;5.30;99.90
35129;DHT22;21301;43.626;10.580;2023-02-26T17:53:12;5.30;99.90
35129;DHT22;21301;43.626;10.580;2023-02-26T17:55:38;5.30;99.90
35129;DHT22;21301;43.626;10.580;2023-02-26T17:58:05;5.40;99.90
35129;DHT22;21301;43.626;10.580;2023-02-26T18:00:32;5.50;99.90
35129;DHT22;21301;43.626;10.580;2023-02-26T18:03:04;5.60;99.90
35129;DHT22;21301;43.626;10.580;2023-02-26T18:05:30;5.70;99.90
35129;DHT22;21301;43.626;10.580;2023-02-26T18:08:01;5.90;99.90
35129;DHT22;21301;43.626;10.580;2023-02-26T18:10:26;5.90;99.90
35129;DHT22;21301;43.626;10.580;2023-02-26T18:12:52;6.00;99.90
35129;DHT22;21301;43.626;10.580;2023-02-26T18:15:18;6.00;99.90
35129;DHT22;21301;43.626;10.580;2023-02-26T18:17:44;5.90;99.90
35129;DHT22;21301;43.626;10.580;2023-02-26T18:20:28;6.00;99.90
35129;DHT22;21301;43.626;10.580;2023-02-26T18:22:54;6.00;99.90
35129;DHT22;21301;43.626;10.580;2023-02-26T18:25:20;6.00;99.90
35129;DHT22;21301;43.626;10.580;2023-02-26T18:27:50;6.10;99.90
35129;DHT22;21301;43.626;10.580;2023-02-26T18:30:27;6.10;99.90
35129;DHT22;21301;43.626;10.580;2023-02-26T18:32:54;6.10;99.90
35129;DHT22;21301;43.626;10.580;2023-02-26T18:35:20;6.10;99.90
35129;DHT22;21301;43.626;10.580;2023-02-26T18:37:49;6.10;99.90
35129;DHT22;21301;43.626;10.580;2023-02-26T18:40:18;6.10;99.90
35129;DHT22;21301;43.626;10.580;2023-02-26T18:42:46;6.10;99.90
35129;DHT22;21301;43.626;10.580;2023-02-26T18:45:12;6.10;99.90
35129;DHT22;21301;43.626;10.580;2023-02-26T18:47:38;6.10;99.90
35129;DHT22;21301;43.626;10.580;2023-02-26T18:50:10;6.20;99.90
35129;DHT22;21301;43.626;10.580;2023-02-26T18:52:36;6.20;99.90
35129;DHT22;21301;43.626;10.580;2023-02-26T18:55:02;6.20;99.90
35129;DHT22;21301;43.626;10.580;2023-02-26T18:57:29;6.20;99.90
35129;DHT22;21301;43.626;10.580;2023-02-26T18:59:55;6.30;99.90
35129;DHT22;21301;43.626;10.580;2023-02-26T19:02:21;6.30;99.90